Time;durP1;ratioP1;P1;durP2;ratioP2;P2;SDS_P1;SDS_P2;PMS_P1;PMS_P2;Temp;Humidity;BMP_temperature;BMP_pressure;BME280_temperature;BME280_humidity;BME280_pressure;Samples;Min_cycle;Max_cycle;Signal;HPM_P1;HPM_P2
2021/10/20 00:01:30;;;;;;;;;;;;;;;;;;;;;
2021/10/20 00:05:01;;;;;;;;;;;;;;;;;;;;;
2021/10/20 00:07:26;;;;;;;;;8.67;7.00;;;;;22.14;49.10;100609.53;6115028;23;68850;-78
2021/10/20 00:09:52;;;;;;;;;6.67;5.00;;;;;22.23;49.22;100620.00;6128592;23;45654;-78
2021/10/20 00:12:27;;;;;;;;;;;;;;;;;;;;;
2021/10/20 00:14:53;;;;;;;;;9.33;9.33;;;;;22.37;48.81;100638.50;6127820;23;72899;-78
2021/10/20 00:24:56;;;;;;;;;;;;;;;;;;;;;
2021/10/20 00:27:22;;;;;;;;;10.67;10.67;;;;;22.16;49.32;100615.78;6261592;22;72883;-78
2021/10/20 00:29:47;;;;;;;;;3.00;3.00;;;;;22.00;49.51;100582.94;6285605;22;45388;-78
2021/10/20 00:32:38;;;;;;;;;;;;;;;;;;;;;
2021/10/20 00:35:05;;;;;;;;;7.33;6.33;;;;;22.06;49.44;100568.28;6280718;22;74712;-78
2021/10/20 00:37:32;;;;;;;;;12.67;10.67;;;;;22.18;49.66;100562.44;6282413;22;45452;-78
2021/10/20 00:40:37;;;;;;;;;;;;;;;;;;;;;
2021/10/20 00:43:05;;;;;;;;;7.67;7.67;;;;;22.27;49.76;100574.78;6185019;23;66048;-78
2021/10/20 00:46:40;;;;;;;;;4.33;4.33;;;;;22.29;49.45;100567.47;6161766;23;46258;-78
2021/10/20 00:48:47;;;;;;;;;6.33;6.33;;;;;22.31;49.93;100579.13;6174280;23;45348;-78
2021/10/20 00:51:13;;;;;;;;;11.33;9.33;;;;;21.86;50.02;100539.22;6166095;23;44849;-78
2021/10/20 00:53:38;;;;;;;;;7.00;6.00;;;;;21.95;50.47;100549.72;6166340;23;45402;-78
2021/10/20 01:02:03;;;;;;;;;;;;;;;;;;;;;
2021/10/20 01:04:32;;;;;;;;;6.00;6.00;;;;;22.21;49.73;100535.22;6092072;23;64388;-77
2021/10/20 01:06:57;;;;;;;;;8.00;6.33;;;;;22.24;49.24;100534.22;6092774;23;46815;-77
2021/10/20 01:09:23;;;;;;;;;8.00;6.67;;;;;22.39;49.38;100565.31;6093142;23;45388;-77
2021/10/20 01:12:01;;;;;;;;;;;;;;;;;;;;;
2021/10/20 01:14:29;;;;;;;;;5.00;5.00;;;;;22.30;49.91;100525.88;6092645;23;67516;-77
2021/10/20 01:16:56;;;;;;;;;9.00;7.67;;;;;22.19;49.75;100501.88;6091547;23;46804;-77
2021/10/20 01:19:21;;;;;;;;;8.00;7.33;;;;;22.23;49.41;100505.38;6088202;23;45441;-78
2021/10/20 01:21:51;;;;;;;;;6.00;6.00;;;;;22.44;50.04;100536.19;6093301;23;45645;-78
2021/10/20 01:24:28;;;;;;;;;;;;;;;;;;;;;
2021/10/20 01:26:56;;;;;;;;;6.67;6.67;;;;;22.10;49.67;100486.88;6093277;23;74466;-77
2021/10/20 01:29:22;;;;;;;;;4.33;4.33;;;;;22.12;49.90;100492.22;6095041;23;45746;-78
2021/10/20 01:31:56;;;;;;;;;5.00;5.00;;;;;22.45;49.87;100513.59;6093919;23;45516;-78
2021/10/20 01:34:26;;;;;;;;;8.33;7.00;;;;;22.36;49.47;100501.28;6095601;23;45505;-77
2021/10/20 01:36:52;;;;;;;;;11.00;9.00;;;;;22.29;50.06;100516.88;6203843;22;46666;-77
2021/10/20 01:39:26;;;;;;;;;10.67;10.33;;;;;22.07;49.86;100473.44;6243182;22;45397;-77
2021/10/20 01:42:35;;;;;;;;;;;;;;;;;;;;;
2021/10/20 01:44:53;;;;;;;;;6.00;6.00;;;;;22.25;49.91;100511.63;6258438;22;45007;-78
2021/10/20 01:47:19;;;;;;;;;7.33;7.33;;;;;22.16;50.48;100499.31;6249989;22;45590;-77
2021/10/20 01:49:44;;;;;;;;;7.00;7.00;;;;;22.23;50.47;100499.94;6250894;22;45485;-77
2021/10/20 01:52:33;;;;;;;;;6.00;6.00;;;;;22.45;50.03;100497.31;6277632;22;45403;-78
2021/10/20 01:58:28;;;;;;;;;6.00;6.00;;;;;22.31;49.95;100481.59;6133602;23;46106;-77
2021/10/20 02:00:56;;;;;;;;;6.33;6.00;;;;;22.05;50.17;100428.41;6126803;23;45957;-79
2021/10/20 02:03:45;;;;;;;;;6.00;6.00;;;;;22.40;49.66;100432.47;6124240;23;45474;-77
2021/10/20 02:10:27;;;;;;;;;;;;;;;;;;;;;
2021/10/20 02:23:52;;;;;;;;;8.33;8.33;;;;;22.24;50.71;100404.22;5835922;24;45574;-78
2021/10/20 02:26:31;;;;;;;;;;;;;;;;;;;;;
2021/10/20 02:30:17;;;;;;;;;;;;;;;;;;;;;
2021/10/20 02:33:13;;;;;;;;;;;;;;;;;;;;;
2021/10/20 02:35:47;;;;;;;;;;;;;;;;;;;;;
2021/10/20 02:38:49;;;;;;;;;11.00;11.00;;;;;22.52;50.28;100404.88;5839728;24;71721;-77
2021/10/20 02:41:25;;;;;;;;;;;;;;;;;;;;;
2021/10/20 02:44:01;;;;;;;;;11.67;10.33;;;;;22.17;50.77;100390.00;5731525;24;45535;-78
2021/10/20 02:46:26;;;;;;;;;6.67;6.67;;;;;22.15;50.85;100395.47;5729434;24;46949;-78
2021/10/20 02:48:52;;;;;;;;;9.00;8.33;;;;;22.13;51.27;100386.53;5733994;24;45471;-78
2021/10/20 02:51:46;;;;;;;;;10.33;10.33;;;;;22.16;50.68;100372.88;5734624;24;45477;-77
2021/10/20 02:54:10;;;;;;;;;12.00;12.00;;;;;22.18;50.91;100378.25;5953014;23;45301;-78
2021/10/20 02:56:36;;;;;;;;;8.00;8.00;;;;;22.11;51.16;100377.56;6032687;23;45592;-78
2021/10/20 02:59:01;;;;;;;;;11.00;9.67;;;;;22.18;51.06;100376.41;6064335;23;45506;-77
2021/10/20 03:01:27;;;;;;;;;11.33;11.33;;;;;22.12;50.65;100382.06;6062484;23;45395;-77
2021/10/20 03:03:52;;;;;;;;;9.67;9.67;;;;;22.00;51.16;100393.38;6066486;23;45289;-77
2021/10/20 03:06:20;;;;;;;;;6.00;6.00;;;;;21.91;51.88;100391.00;6065651;23;46186;-77
2021/10/20 03:08:45;;;;;;;;;8.33;8.33;;;;;21.77;51.54;100384.31;6066061;23;45372;-78
2021/10/20 03:12:01;;;;;;;;;;;;;;;;;;;;;
2021/10/20 03:18:26;;;;;;;;;;;;;;;;;;;;;
2021/10/20 03:21:19;;;;;;;;;5.67;5.67;;;;;21.77;51.58;100389.75;6181203;23;73384;-78
2021/10/20 03:23:53;;;;;;;;;8.67;8.67;;;;;21.88;51.74;100429.06;6160263;23;45375;-77
2021/10/20 03:26:21;;;;;;;;;11.00;11.00;;;;;21.70;52.27;100407.13;6186118;23;45902;-77
2021/10/20 03:28:50;;;;;;;;;5.00;4.67;;;;;21.72;52.37;100385.44;6159743;23;45339;-78
2021/10/20 03:31:28;;;;;;;;;9.67;9.00;;;;;21.89;52.21;100369.41;6186065;23;45513;-78
2021/10/20 03:34:04;;;;;;;;;;;;;;;;;;;;;
2021/10/20 03:36:32;;;;;;;;;11.00;11.00;;;;;21.45;51.84;100316.97;6181965;23;65157;-78
2021/10/20 03:39:06;;;;;;;;;10.33;9.33;;;;;21.65;52.99;100378.47;6159086;23;45359;-78
2021/10/20 03:41:31;;;;;;;;;11.67;11.67;;;;;21.60;52.27;100369.66;6157240;23;45310;-78
2021/10/20 03:44:56;;;;;;;;;;;;;;;;;;;;;
2021/10/20 03:50:45;;;;;;;;;8.33;7.33;;;;;21.68;51.79;100349.47;5951536;23;45486;-78
2021/10/20 03:53:13;;;;;;;;;13.67;12.00;;;;;21.83;52.12;100347.13;5928832;23;45428;-77
2021/10/20 03:55:54;;;;;;;;;8.67;7.67;;;;;21.97;51.27;100342.03;6070223;23;45420;-77
2021/10/20 03:58:21;;;;;;;;;8.67;8.67;;;;;21.92;51.64;100371.13;6123851;23;45378;-77
2021/10/20 04:00:46;;;;;;;;;12.00;12.00;;;;;21.80;51.59;100339.13;6097079;23;47665;-77
2021/10/20 04:03:47;;;;;;;;;6.50;6.50;;;;;21.95;51.16;100319.56;6123344;23;45459;-77
2021/10/20 04:06:35;;;;;;;;;;;;;;;;;;;;;
2021/10/20 04:09:11;;;;;;;;;;;;;;;;;;;;;
2021/10/20 04:11:45;;;;;;;;;9.00;9.00;;;;;22.07;51.59;100316.34;6124245;23;73953;-77
2021/10/20 04:18:20;;;;;;;;;;;;;;;;;;;;;
2021/10/20 04:20:45;;;;;;;;;8.67;8.67;;;;;21.86;51.98;100314.53;6034280;23;66250;-78
2021/10/20 04:23:11;;;;;;;;;12.00;10.00;;;;;21.96;51.76;100329.47;6014830;23;46662;-78
2021/10/20 04:25:36;;;;;;;;;12.33;10.67;;;;;21.86;51.75;100328.06;6040324;23;45853;-78
2021/10/20 04:28:02;;;;;;;;;10.00;9.33;;;;;21.73;51.76;100284.31;6074974;23;45386;-78
2021/10/20 04:30:31;;;;;;;;;12.33;11.33;;;;;21.89;51.57;100322.50;6095682;23;45336;-78
2021/10/20 04:33:06;;;;;;;;;;;;;;;;;;;;;
2021/10/20 04:35:32;;;;;;;;;9.33;9.33;;;;;21.76;51.88;100333.81;6121167;23;73156;-77
2021/10/20 04:37:58;;;;;;;;;12.33;11.00;;;;;21.77;52.43;100330.19;6098613;23;45371;-78
2021/10/20 04:40:23;;;;;;;;;8.67;8.00;;;;;21.75;52.10;100323.03;6096704;23;45930;-78
2021/10/20 04:42:50;;;;;;;;;9.33;8.00;;;;;21.68;51.92;100325.13;6122819;23;45373;-78
2021/10/20 04:46:12;;;;;;;;;;;;;;;;;;;;;
2021/10/20 04:55:43;;;;;;;;;13.00;12.33;;;;;21.39;52.92;100345.13;6034591;23;45407;-78
2021/10/20 04:58:09;;;;;;;;;9.33;9.33;;;;;21.32;52.85;100351.69;6038248;23;45542;-77
2021/10/20 05:00:36;;;;;;;;;12.67;11.67;;;;;21.42;53.39;100360.38;6013667;23;45629;-77
2021/10/20 05:03:12;;;;;;;;;;;;;;;;;;;;;
2021/10/20 05:06:06;;;;;;;;;12.00;12.00;;;;;21.48;52.20;100314.19;6038671;23;74415;-77
2021/10/20 05:08:32;;;;;;;;;8.67;8.33;;;;;21.36;53.22;100342.53;6032937;23;45451;-78
2021/10/20 05:11:50;;;;;;;;;;;;;;;;;;;;;
2021/10/20 05:14:27;;;;;;;;;11.00;11.00;;;;;21.54;53.37;100343.72;6027912;23;65957;-78
2021/10/20 05:16:55;;;;;;;;;11.00;10.33;;;;;21.31;52.96;100307.53;6037056;23;45803;-78
2021/10/20 05:19:23;;;;;;;;;8.33;8.33;;;;;21.31;53.61;100328.28;6037005;23;45383;-77
2021/10/20 05:21:49;;;;;;;;;11.00;11.00;;;;;21.24;53.09;100292.47;6038043;23;45364;-77
2021/10/20 05:24:15;;;;;;;;;16.00;14.67;;;;;21.31;53.64;100315.66;6069756;23;45436;-78
2021/10/20 05:26:40;;;;;;;;;11.33;11.00;;;;;21.26;53.44;100306.81;6097141;23;45459;-77
2021/10/20 05:29:16;;;;;;;;;;;;;;;;;;;;;
2021/10/20 05:35:31;;;;;;;;;13.00;12.67;;;;;21.49;53.49;100288.88;6119465;23;45376;-77
2021/10/20 05:37:59;;;;;;;;;11.33;11.33;;;;;21.29;53.46;100276.06;6123398;23;45472;-78
2021/10/20 05:40:25;;;;;;;;;14.33;13.33;;;;;21.27;53.36;100276.16;6122201;23;45432;-77
2021/10/20 05:42:53;;;;;;;;;11.00;11.00;;;;;21.42;53.78;100258.44;6098444;23;45410;-78
2021/10/20 05:45:38;;;;;;;;;16.00;12.00;;;;;21.24;53.42;100215.88;6098337;23;44834;-77
2021/10/20 05:48:23;;;;;;;;;;;;;;;;;;;;;
2021/10/20 05:50:53;;;;;;;;;16.33;14.00;;;;;21.22;53.69;100250.22;6120455;23;71907;-78
2021/10/20 05:53:19;;;;;;;;;11.33;11.33;;;;;21.20;53.66;100241.28;6100263;23;45677;-77
2021/10/20 05:55:45;;;;;;;;;13.00;11.00;;;;;21.10;53.80;100235.31;6125325;23;46365;-77
2021/10/20 05:59:08;;;;;;;;;;;;;;;;;;;;;
2021/10/20 06:02:06;;;;;;;;;;;;;;;;;;;;;
2021/10/20 06:05:01;;;;;;;;;11.00;10.00;;;;;21.31;53.48;100241.72;6119860;23;68083;-78
2021/10/20 06:07:27;;;;;;;;;9.33;8.00;;;;;21.17;54.31;100247.69;6100145;23;45474;-78
2021/10/20 06:09:53;;;;;;;;;11.67;11.67;;;;;20.91;54.00;100217.09;6110316;23;46191;-78
2021/10/20 06:12:21;;;;;;;;;13.00;13.00;;;;;21.23;53.97;100266.38;6239187;22;45345;-76
2021/10/20 06:14:47;;;;;;;;;11.00;11.00;;;;;21.14;53.70;100254.06;6274651;22;45412;-77
2021/10/20 06:17:12;;;;;;;;;11.33;11.00;;;;;20.92;54.50;100204.44;6278171;22;45437;-78
2021/10/20 06:19:48;;;;;;;;;;;;;;;;;;;;;
2021/10/20 06:22:24;;;;;;;;;11.00;10.00;;;;;21.42;53.87;100214.28;6275750;22;71704;-78
2021/10/20 06:24:50;;;;;;;;;11.00;11.00;;;;;21.25;54.13;100194.19;6252662;22;45903;-77
2021/10/20 06:27:15;;;;;;;;;10.33;10.00;;;;;21.25;54.38;100209.50;6251216;22;45488;-79
2021/10/20 06:29:41;;;;;;;;;15.00;11.00;;;;;21.38;54.28;100214.38;6278073;22;46800;-77
2021/10/20 06:32:09;;;;;;;;;8.33;8.33;;;;;21.41;53.81;100198.97;6254008;22;45421;-78
2021/10/20 06:34:38;;;;;;;;;8.67;8.67;;;;;21.40;54.29;100178.28;6252755;22;45412;-77
2021/10/20 06:37:30;;;;;;;;;;;;;;;;;;;;;
2021/10/20 06:40:31;;;;;;;;;;;;;;;;;;;;;
2021/10/20 06:43:12;;;;;;;;;15.00;15.00;;;;;21.45;55.13;100192.53;6277386;22;71341;-77
2021/10/20 06:46:28;;;;;;;;;11.00;9.67;;;;;21.68;54.50;100197.03;6258594;22;45464;-77
2021/10/20 06:48:54;;;;;;;;;10.33;10.33;;;;;21.40;55.66;100189.13;6254909;22;44863;-78
2021/10/20 06:51:19;;;;;;;;;11.33;11.33;;;;;21.02;55.96;100142.81;6254223;22;45866;-79
2021/10/20 06:54:03;;;;;;;;;10.00;9.00;;;;;21.48;55.05;100195.13;6253924;22;45164;-78
2021/10/20 06:56:57;;;;;;;;;13.00;13.00;;;;;21.44;55.22;100174.56;6281817;22;45290;-78
2021/10/20 06:59:33;;;;;;;;;10.67;10.67;;;;;21.40;55.30;100162.06;6255169;22;45325;-80
2021/10/20 07:02:03;;;;;;;;;13.67;13.67;;;;;21.21;56.16;100141.16;6251857;22;46293;-78
2021/10/20 07:04:54;;;;;;;;;11.00;11.00;;;;;21.27;55.63;100126.47;6252324;22;45531;-77
2021/10/20 07:07:44;;;;;;;;;12.00;10.00;;;;;21.27;55.18;100108.47;6224223;22;44818;-78
2021/10/20 07:10:43;;;;;;;;;;;;;;;;;;;;;
2021/10/20 07:13:41;;;;;;;;;14.00;14.00;;;;;21.44;54.95;100136.69;6248030;22;73664;-78
2021/10/20 07:16:12;;;;;;;;;10.00;9.00;;;;;21.40;55.32;100140.41;6184008;23;45378;-79
2021/10/20 07:19:07;;;;;;;;;15.00;12.67;;;;;21.58;55.25;100153.22;6161331;23;45324;-78
2021/10/20 07:26:23;;;;;;;;;;;;;;;;;;;;;
2021/10/20 07:30:26;;;;;;;;;;;;;;;;;;;;;
2021/10/20 07:36:23;;;;;;;;;10.33;10.33;;;;;21.49;55.70;100175.22;6013481;23;45381;-78
2021/10/20 07:38:57;;;;;;;;;11.00;9.00;;;;;21.30;56.03;100172.34;6022544;23;47197;-78
2021/10/20 08:37:13;;;;;;;;;;;;;;;;;;;;;
2021/10/20 09:02:18;;;;;;;;;;;;;;;;;;;;;
2021/10/20 09:04:54;;;;;;;;;19.00;19.00;;;;;21.34;57.84;100210.03;6316322;22;66994;-78
2021/10/20 09:07:56;;;;;;;;;;;;;;;;;;;;;
2021/10/20 09:14:33;;;;;;;;;20.33;20.00;;;;;21.84;58.65;100241.47;6190269;23;45337;-79
2021/10/20 09:17:03;;;;;;;;;13.00;12.00;;;;;21.72;58.44;100223.91;6187813;23;45414;-77
2021/10/20 09:19:34;;;;;;;;;13.33;13.33;;;;;21.62;58.32;100216.22;6159339;23;44925;-78
2021/10/20 09:22:59;;;;;;;;;;;;;;;;;;;;;
2021/10/20 09:26:20;;;;;;;;;17.33;17.33;;;;;21.95;57.70;100235.63;6100747;23;72066;-82
2021/10/20 09:30:13;;;;;;;;;;;;;;;;;;;;;
2021/10/20 09:33:55;;;;;;;;;;;;;;;;;;;;;
2021/10/20 09:37:40;;;;;;;;;;;;;;;;;;;;;
2021/10/20 09:41:06;;;;;;;;;18.00;15.67;;;;;21.75;58.52;100234.63;5990362;23;72719;-83
2021/10/20 10:06:38;;;;;;;;;;;;;;;;;;;;;
2021/10/20 10:23:05;;;;;;;;;;;;;;;;;;;;;
2021/10/20 11:33:18;;;;;;;;;;;;;;;;;;;;;
2021/10/20 11:36:22;;;;;;;;;11.67;11.67;;;;;24.55;53.04;100121.22;5961717;23;74437;-84
2021/10/20 11:47:17;;;;;;;;;;;;;;;;;;;;;
2021/10/20 12:07:28;;;;;;;;;;;;;;;;;;;;;
2021/10/20 12:28:10;;;;;;;;;;;;;;;;;;;;;
2021/10/20 12:30:57;;;;;;;;;8.67;8.00;;;;;25.00;50.77;100037.16;5976521;23;75238;-80
2021/10/20 12:33:59;;;;;;;;;;;;;;;;;;;;;
2021/10/20 12:37:11;;;;;;;;;8.33;8.33;;;;;24.91;49.65;100035.84;5953856;23;67956;-81
2021/10/20 12:40:58;;;;;;;;;;;;;;;;;;;;;
2021/10/20 12:47:42;;;;;;;;;7.00;7.00;;;;;24.67;49.67;99974.72;5925765;24;45532;-82
2021/10/20 12:50:35;;;;;;;;;;;;;;;;;;;;;
2021/10/20 13:06:35;;;;;;;;;5.00;5.00;;;;;24.91;48.24;99950.66;5902478;24;46581;-80
2021/10/20 13:09:01;;;;;;;;;7.00;7.00;;;;;24.61;48.70;99937.00;5880011;24;44951;-80
2021/10/20 13:11:48;;;;;;;;;;;;;;;;;;;;;
2021/10/20 13:17:46;;;;;;;;;9.25;8.25;;;;;24.59;49.24;99933.50;5901772;24;45551;-82
2021/10/20 13:20:29;;;;;;;;;5.75;5.75;;;;;24.98;48.85;99964.78;5903779;24;45904;-82
2021/10/20 13:23:51;;;;;;;;;;;;;;;;;;;;;
2021/10/20 13:30:36;;;;;;;;;;;;;;;;;;;;;
2021/10/20 13:43:18;;;;;;;;;9.75;8.50;;;;;24.59;49.09;99925.34;6158454;22;44935;-83
2021/10/20 13:46:12;;;;;;;;;8.50;8.50;;;;;24.27;49.39;99882.66;6139639;23;45497;-82
2021/10/20 13:48:38;;;;;;;;;8.00;8.00;;;;;24.01;49.81;99880.53;6165455;23;45434;-82
2021/10/20 14:08:08;;;;;;;;;6.75;6.75;;;;;23.80;50.12;99826.44;6164095;23;45619;-83
2021/10/20 14:11:33;;;;;;;;;;;;;;;;;;;;;
2021/10/20 14:22:04;;;;;;;;;;;;;;;;;;;;;
2021/10/20 14:25:19;;;;;;;;;;;;;;;;;;;;;
2021/10/20 14:28:39;;;;;;;;;8.25;7.75;;;;;23.88;49.59;99812.47;6073481;23;72146;-84
2021/10/20 14:34:48;;;;;;;;;;;;;;;;;;;;;
2021/10/20 14:41:10;;;;;;;;;;;;;;;;;;;;;
2021/10/20 14:44:34;;;;;;;;;;;;;;;;;;;;;
2021/10/20 14:48:10;;;;;;;;;;;;;;;;;;;;;
2021/10/20 14:51:06;;;;;;;;;;;;;;;;;;;;;
2021/10/20 14:57:34;;;;;;;;;10.00;10.00;;;;;23.83;50.58;99788.25;5904703;23;45166;-83
2021/10/20 15:00:30;;;;;;;;;7.75;7.75;;;;;23.85;50.24;99739.28;5907064;24;45326;-82
2021/10/20 15:03:55;;;;;;;;;;;;;;;;;;;;;
2021/10/20 15:09:47;;;;;;;;;8.50;6.75;;;;;24.09;49.75;99775.91;5774729;24;44967;-85
2021/10/20 15:16:09;;;;;;;;;6.00;6.00;;;;;23.77;50.05;99728.88;5745372;24;45605;-85
2021/10/20 15:19:21;;;;;;;;;;;;;;;;;;;;;
2021/10/20 15:32:41;;;;;;;;;10.33;8.00;;;;;23.80;50.80;99738.69;5855802;24;45357;-83
2021/10/20 15:35:34;;;;;;;;;6.75;5.75;;;;;23.65;50.87;99727.72;5855292;24;44774;-85
2021/10/20 15:49:46;;;;;;;;;;;;;;;;;;;;;
2021/10/20 15:56:13;;;;;;;;;6.00;5.33;;;;;23.28;51.51;99697.19;6020456;23;45476;-83
2021/10/20 16:05:57;;;;;;;;;8.33;7.00;;;;;23.09;51.17;99642.22;5987566;23;44980;-84
2021/10/20 16:15:39;;;;;;;;;;;;;;;;;;;;;
2021/10/20 16:18:22;;;;;;;;;8.33;8.33;;;;;23.12;52.27;99625.75;5960503;23;65182;-84
2021/10/20 16:21:04;;;;;;;;;10.67;10.00;;;;;22.99;52.50;99597.56;5961883;23;45642;-84
2021/10/20 16:23:43;;;;;;;;;;;;;;;;;;;;;
2021/10/20 16:35:24;;;;;;;;;;;;;;;-146.37;100.00;59337.28;3753545;23;279078968;-83
2021/10/20 16:43:02;;;;;;;;;1.00;1.00;;;;;22.34;53.86;99503.53;2;234069916;234069916;-83
2021/10/20 16:45:56;;;;;;;;;7.33;7.00;;;;;22.49;53.22;99520.78;6062455;23;45702;-82
2021/10/20 16:48:33;;;;;;;;;47.67;41.00;;;;;22.54;53.94;99541.25;6073150;23;45477;-83
2021/10/20 16:51:06;;;;;;;;;12.67;12.67;;;;;22.22;53.46;99504.13;6091591;23;45544;-83
2021/10/20 16:53:46;;;;;;;;;;;;;;;;;;;;;
2021/10/20 16:59:39;;;;;;;;;7.33;7.00;;;;;22.32;54.44;99527.13;6154256;23;45455;-83
2021/10/20 17:02:07;;;;;;;;;6.50;6.50;;;;;22.22;54.66;99501.41;6135492;23;44769;-83
2021/10/20 17:04:35;;;;;;;;;10.00;7.75;;;;;22.25;54.84;99513.00;6136344;23;45316;-83
2021/10/20 17:07:02;;;;;;;;;5.00;5.00;;;;;22.06;54.14;99486.00;6135151;23;47737;-83
2021/10/20 17:09:31;;;;;;;;;11.75;10.75;;;;;22.10;54.21;99460.53;6138281;23;44744;-82
2021/10/20 17:15:20;;;;;;;;;;;;;;;;;;;;;
2021/10/20 17:17:55;;;;;;;;;10.67;9.33;;;;;22.20;55.04;99471.75;6103254;23;75347;-85
2021/10/20 17:20:51;;;;;;;;;;;;;;;;;;;;;
2021/10/20 17:23:25;;;;;;;;;10.00;8.67;;;;;22.03;54.86;99480.75;6102598;23;68155;-83
2021/10/20 17:25:59;;;;;;;;;8.00;8.00;;;;;22.00;55.12;99469.25;6066323;23;45324;-83
2021/10/20 17:31:38;;;;;;;;;7.00;7.00;;;;;21.93;54.95;99430.75;6097489;23;45619;-83
2021/10/20 17:34:06;;;;;;;;;9.00;5.67;;;;;21.75;55.24;99438.94;6078958;23;45454;-83
2021/10/20 17:36:54;;;;;;;;;11.33;9.67;;;;;21.99;55.40;99452.09;6112777;23;45419;-84
2021/10/20 17:42:18;;;;;;;;;13.33;7.33;;;;;21.83;55.57;99414.13;6145689;23;45413;-83
2021/10/20 17:45:00;;;;;;;;;9.00;9.00;;;;;21.82;55.10;99423.22;6134728;23;44906;-83
2021/10/20 17:48:28;;;;;;;;;8.67;8.00;;;;;21.72;55.78;99428.25;6133310;23;45497;-83
2021/10/20 17:50:47;;;;;;;;;6.67;6.33;;;;;21.62;55.68;99424.28;6142738;23;45677;-82
2021/10/20 17:53:25;;;;;;;;;7.33;7.33;;;;;21.75;55.47;99402.84;6256670;22;45496;-82
2021/10/20 18:00:01;;;;;;;;;;;;;;;;;;;;;
2021/10/20 18:02:30;;;;;;;;;7.00;6.67;;;;;21.53;55.78;99400.41;6271117;22;74214;-84
2021/10/20 18:04:59;;;;;;;;;8.00;8.00;;;;;21.93;55.90;99420.81;6258539;22;44884;-84
2021/10/20 18:07:36;;;;;;;;;15.00;12.33;;;;;21.56;55.92;99384.03;6285031;22;44870;-84
2021/10/20 18:10:14;;;;;;;;;11.33;8.67;;;;;21.49;56.31;99369.06;6283215;22;45718;-84
2021/10/20 18:12:46;;;;;;;;;8.33;7.00;;;;;21.69;55.92;99371.63;6285324;22;46829;-83
2021/10/20 18:15:14;;;;;;;;;10.33;9.33;;;;;21.57;56.41;99354.19;6259084;22;45374;-84
2021/10/20 18:17:43;;;;;;;;;10.00;10.00;;;;;21.72;56.06;99394.91;6258465;22;45455;-84
2021/10/20 18:20:23;;;;;;;;;9.00;8.00;;;;;21.77;56.62;99392.81;6257508;22;45359;-83
2021/10/20 18:22:59;;;;;;;;;9.00;8.33;;;;;21.70;56.42;99375.19;6256568;22;46922;-83
2021/10/20 18:25:30;;;;;;;;;10.33;9.67;;;;;21.50;56.64;99324.84;6257446;22;45357;-84
2021/10/20 18:28:06;;;;;;;;;;;;;;;;;;;;;
2021/10/20 18:30:54;;;;;;;;;;;;;;;;;;;;;
2021/10/20 18:33:41;;;;;;;;;13.00;12.67;;;;;21.33;56.55;99313.06;6285719;22;74575;-84
2021/10/20 18:36:08;;;;;;;;;9.00;9.00;;;;;21.26;56.74;99300.81;6284202;22;45336;-84
2021/10/20 18:38:35;;;;;;;;;9.00;8.00;;;;;21.33;56.44;99314.88;6280658;22;45285;-84
2021/10/20 18:41:00;;;;;;;;;10.33;9.00;;;;;21.28;56.69;99306.16;6279913;22;45384;-84
2021/10/20 18:43:45;;;;;;;;;;;;;;;;;;;;;
2021/10/20 18:46:14;;;;;;;;;10.67;9.00;;;;;21.50;56.18;99308.63;6282964;22;72135;-84
2021/10/20 18:48:44;;;;;;;;;6.33;6.33;;;;;21.15;56.42;99273.50;6255493;22;45523;-84
2021/10/20 18:54:47;;;;;;;;;7.75;7.75;;;;;21.49;56.40;99306.84;6285461;22;45709;-83
2021/10/20 18:57:27;;;;;;;;;;;;;;;;;;;;;
2021/10/20 18:59:56;;;;;;;;;7.67;7.00;;;;;21.09;56.54;99233.28;6284862;22;68839;-84
2021/10/20 19:02:25;;;;;;;;;8.67;8.33;;;;;21.48;56.65;99267.25;6258058;22;45604;-84
2021/10/20 19:04:51;;;;;;;;;9.00;8.33;;;;;21.07;56.63;99235.19;6284136;22;46641;-84
2021/10/20 19:16:48;;;;;;;;;;;;;;;-146.37;100.00;59337.28;4960799;22;279074194;-84
2021/10/20 19:22:52;;;;;;;;;3.50;3.50;;;;;21.11;57.31;99201.63;2;234068197;234068197;-84
2021/10/20 19:25:28;;;;;;;;;11.33;11.00;;;;;21.08;56.27;99150.41;6253294;22;46717;-84
2021/10/20 19:28:26;;;;;;;;;;;;;;;;;;;;;
2021/10/20 19:31:08;;;;;;;;;7.33;7.33;;;;;21.29;56.03;99151.94;6284800;22;68096;-84
2021/10/20 19:33:44;;;;;;;;;6.00;5.67;;;;;21.46;56.35;99193.44;6286172;22;45435;-84
2021/10/20 19:36:24;;;;;;;;;;;;;;;;;;;;;
2021/10/20 19:38:50;;;;;;;;;6.67;6.67;;;;;21.00;56.10;99121.09;6282509;22;71694;-84
2021/10/20 19:41:25;;;;;;;;;8.75;6.00;;;;;21.15;55.52;99124.81;6281365;22;45227;-84
2021/10/20 19:44:13;;;;;;;;;;;;;;;;;;;;;
2021/10/20 19:46:39;;;;;;;;;6.67;5.33;;;;;20.88;54.83;99057.78;6282742;22;74504;-84
2021/10/20 19:49:08;;;;;;;;;6.00;6.00;;;;;21.15;54.96;99097.75;6256102;22;45417;-83
2021/10/20 19:51:40;;;;;;;;;5.67;5.67;;;;;20.98;55.18;99050.03;6257862;22;45424;-84
2021/10/20 19:54:11;;;;;;;;;4.67;4.33;;;;;21.05;55.45;99045.19;6284566;22;44856;-84
2021/10/20 19:56:40;;;;;;;;;6.33;5.67;;;;;20.98;55.42;99063.53;6256918;22;46822;-84
2021/10/20 20:01:59;;;;;;;;;5.67;4.33;;;;;20.87;55.47;99007.41;6285271;22;45691;-83
2021/10/20 20:04:25;;;;;;;;;4.67;2.67;;;;;20.75;55.32;99014.38;6282318;22;45437;-83
2021/10/20 20:07:04;;;;;;;;;;;;;;;;;;;;;
2021/10/20 20:09:35;;;;;;;;;3.33;3.33;;;;;21.02;54.54;98989.44;6283283;22;72899;-84
2021/10/20 20:12:01;;;;;;;;;3.67;3.67;;;;;20.84;54.63;98958.94;6258121;22;45550;-84
2021/10/20 20:14:35;;;;;;;;;4.33;4.33;;;;;21.01;54.11;98959.81;6258421;22;45493;-84
2021/10/20 20:17:32;;;;;;;;;2.25;2.25;;;;;21.13;53.39;98964.53;6257428;22;47169;-84
2021/10/20 20:19:58;;;;;;;;;5.50;2.75;;;;;20.78;53.45;98938.56;6248356;22;44863;-84
2021/10/20 20:22:33;;;;;;;;;2.67;2.67;;;;;21.07;52.95;98940.56;6281971;22;44875;-84
2021/10/20 20:24:59;;;;;;;;;4.50;3.00;;;;;20.86;53.35;98946.19;6257183;22;45489;-84
2021/10/20 20:27:38;;;;;;;;;;;;;;;;;;;;;
2021/10/20 20:30:19;;;;;;;;;;;;;;;;;;;;;
2021/10/20 20:32:55;;;;;;;;;3.33;3.00;;;;;21.19;52.66;98929.03;6287180;22;67297;-84
2021/10/20 20:35:31;;;;;;;;;3.00;2.00;;;;;21.24;52.77;98912.53;6284118;22;45366;-84
2021/10/20 20:41:55;;;;;;;;;4.00;2.33;;;;;20.96;53.77;98876.28;6072757;23;45218;-84
2021/10/20 20:44:29;;;;;;;;;1.75;1.75;;;;;20.96;53.90;98854.66;6074701;23;45747;-83
2021/10/20 20:47:05;;;;;;;;;2.67;2.67;;;;;20.94;53.87;98879.06;6070277;23;45552;-84
2021/10/20 20:49:46;;;;;;;;;3.00;2.00;;;;;21.21;53.79;98891.94;6072984;23;47364;-83
2021/10/20 20:52:17;;;;;;;;;2.00;2.00;;;;;21.11;54.83;98882.66;6072049;23;45804;-83
2021/10/20 20:54:47;;;;;;;;;3.00;3.00;;;;;20.91;61.37;98889.22;6073420;23;45235;-83
2021/10/20 20:57:28;;;;;;;;;;;;;;;;;;;;;
2021/10/20 21:07:14;;;;;;;;;;;;;;;;;;;;;
2021/10/20 21:09:53;;;;;;;;;;;;;;;;;;;;;
2021/10/20 21:12:33;;;;;;;;;1.25;1.25;;;;;19.75;62.49;98994.50;5955260;23;74534;-83
2021/10/20 21:15:01;;;;;;;;;1.00;1.00;;;;;19.41;62.41;98984.50;5956941;23;45465;-83
2021/10/20 21:17:33;;;;;;;;;1.50;0.75;;;;;19.46;62.24;98987.88;6025672;23;45295;-83
2021/10/20 21:20:08;;;;;;;;;0.00;0.00;;;;;19.32;60.40;98970.56;6103343;23;44887;-83
2021/10/20 21:22:34;;;;;;;;;1.00;1.00;;;;;19.23;61.42;98972.81;6106320;23;47130;-83
2021/10/20 21:25:19;;;;;;;;;0.00;0.00;;;;;19.24;60.23;98955.72;6105588;23;45375;-83
2021/10/20 21:27:53;;;;;;;;;1.00;1.00;;;;;19.28;60.70;98965.41;6106283;23;45404;-83
2021/10/20 21:30:50;;;;;;;;;;;;;;;;;;;;;
2021/10/20 21:33:25;;;;;;;;;0.00;0.00;;;;;18.68;60.15;98949.44;6131926;23;74623;-83
2021/10/20 21:35:50;;;;;;;;;1.00;1.00;;;;;18.57;58.59;98931.97;6107805;23;45377;-83
2021/10/20 21:49:41;;;;;;;;;;;;;;;-146.37;100.00;59337.28;212010;23;279080385;-83
2021/10/20 21:58:24;;;;;;;;;;;;;;;;;;;;;
2021/10/20 22:18:01;;;;;;;;;;;;;;;;;;;;;
2021/10/20 22:28:21;;;;;;;;;;;;;;;;;;;;;
2021/10/20 22:36:58;;;;;;;;;0.00;0.00;;;;;-146.37;100.00;59337.28;2;234097125;234097125;-83
2021/10/20 22:47:05;;;;;;;;;0.50;0.50;;;;;-146.37;100.00;59337.28;2;279079099;279079099;-83
2021/10/20 22:55:41;;;;;;;;;0.50;0.50;;;;;-146.37;100.00;59337.28;2;234069235;234069235;-83
2021/10/20 23:06:07;;;;;;;;;;;;;;;;;;;;;
2021/10/20 23:14:37;;;;;;;;;1.00;1.00;;;;;-146.37;100.00;59337.28;2;234095485;234095485;-83
2021/10/20 23:24:45;;;;;;;;;0.50;0.50;;;;;-146.37;100.00;59337.28;2;279081262;279081262;-83
2021/10/20 23:33:17;;;;;;;;;2.50;0.00;;;;;-146.37;100.00;59337.28;2;234068898;234068898;-83
2021/10/20 23:43:22;;;;;;;;;0.00;0.00;;;;;-146.37;100.00;59337.28;2;279083844;279083844;-83
2021/10/20 23:52:00;;;;;;;;;0.00;0.00;;;;;-146.37;100.00;59337.28;2;234068797;234068797;-83
